Time;durP1;ratioP1;P1;durP2;ratioP2;P2;SDS_P1;SDS_P2;PMS_P1;PMS_P2;Temp;Humidity;BMP_temperature;BMP_pressure;BME280_temperature;BME280_humidity;BME280_pressure;Samples;Min_cycle;Max_cycle;Signal;HPM_P1;HPM_P2
2023/08/04 00:02:07;;;;;;;1.60;1.43;;;15.40;98.00;;;;;;5050693;28;20454;-67
2023/08/04 00:04:36;;;;;;;2.37;2.00;;;15.30;98.00;;;;;;5050737;28;20472;-67
2023/08/04 00:07:03;;;;;;;2.00;1.60;;;15.30;98.00;;;;;;5050742;28;20975;-66
2023/08/04 00:09:30;;;;;;;1.80;1.50;;;15.30;98.00;;;;;;5050413;28;20873;-67
2023/08/04 00:11:57;;;;;;;1.50;1.30;;;15.40;98.00;;;;;;5032874;28;20445;-67
2023/08/04 00:14:24;;;;;;;2.40;1.57;;;15.60;98.00;;;;;;5050821;28;20445;-67
2023/08/04 00:16:51;;;;;;;1.90;1.70;;;15.60;98.00;;;;;;5051897;28;20450;-66
2023/08/04 00:19:19;;;;;;;1.87;1.50;;;15.60;98.00;;;;;;5054493;28;20449;-66
2023/08/04 00:21:48;;;;;;;2.10;1.70;;;15.50;98.00;;;;;;5054329;28;20524;-67
2023/08/04 00:24:15;;;;;;;2.13;1.57;;;15.50;98.00;;;;;;5019884;28;20999;-67
2023/08/04 00:26:42;;;;;;;3.40;1.50;;;15.40;98.00;;;;;;5053869;28;20508;-67
2023/08/04 00:29:09;;;;;;;1.93;1.67;;;15.30;98.00;;;;;;5054130;28;20457;-67
2023/08/04 00:31:36;;;;;;;1.97;1.50;;;15.20;98.00;;;;;;5054103;28;20513;-67
2023/08/04 00:34:05;;;;;;;3.20;1.90;;;15.10;98.00;;;;;;5054293;28;20943;-67
2023/08/04 00:36:32;;;;;;;1.60;1.60;;;15.10;98.00;;;;;;5036319;28;20454;-67
2023/08/04 00:39:00;;;;;;;5.20;1.53;;;15.00;98.00;;;;;;5053845;28;20468;-66
2023/08/04 00:41:27;;;;;;;1.87;1.50;;;14.90;98.00;;;;;;5053684;28;20449;-67
2023/08/04 00:43:55;;;;;;;2.53;1.80;;;15.00;98.00;;;;;;5053809;28;20446;-67
2023/08/04 00:46:23;;;;;;;1.97;1.60;;;15.00;98.00;;;;;;5053646;28;20492;-67
2023/08/04 00:48:50;;;;;;;1.90;1.67;;;14.80;98.00;;;;;;5053598;28;20454;-67
2023/08/04 00:51:18;;;;;;;3.23;1.70;;;14.80;98.00;;;;;;5053515;28;20480;-67
2023/08/04 00:53:45;;;;;;;1.80;1.60;;;15.20;98.00;;;;;;5053431;28;20460;-67
2023/08/04 00:56:14;;;;;;;2.00;1.70;;;15.20;98.00;;;;;;5053506;28;20450;-67
2023/08/04 00:58:41;;;;;;;1.97;1.70;;;15.20;98.00;;;;;;5035741;28;20457;-67
2023/08/04 01:01:08;;;;;;;2.97;1.57;;;15.00;98.00;;;;;;5035909;28;20512;-66
2023/08/04 01:03:38;;;;;;;1.60;1.50;;;14.90;98.00;;;;;;5053438;28;21005;-66
2023/08/04 01:06:12;;;;;;;1.80;1.50;;;14.80;98.00;;;;;;5053131;28;21026;-67
2023/08/04 01:08:43;;;;;;;8.50;1.90;;;14.70;98.00;;;;;;5053225;28;20458;-67
2023/08/04 01:11:19;;;;;;;1.70;1.50;;;14.50;98.00;;;;;;5053343;28;20457;-66
2023/08/04 01:13:48;;;;;;;2.90;1.93;;;14.50;98.00;;;;;;5053172;28;20453;-67
2023/08/04 01:16:15;;;;;;;1.93;1.70;;;14.50;98.00;;;;;;5053214;28;20453;-67
2023/08/04 01:18:42;;;;;;;1.77;1.60;;;14.80;98.00;;;;;;5052741;28;20457;-66
2023/08/04 01:21:10;;;;;;;2.67;1.80;;;14.80;98.00;;;;;;5053015;28;20947;-67
2023/08/04 01:23:38;;;;;;;7.73;1.80;;;14.50;98.00;;;;;;5053219;28;20460;-67
2023/08/04 01:26:06;;;;;;;3.30;1.80;;;14.50;98.00;;;;;;5035381;28;20487;-67
2023/08/04 01:28:35;;;;;;;2.37;1.80;;;14.50;98.00;;;;;;5052212;28;20953;-66
2023/08/04 01:31:03;;;;;;;2.30;1.60;;;14.40;98.00;;;;;;5052826;28;20473;-67
2023/08/04 01:33:31;;;;;;;2.17;1.50;;;14.40;98.00;;;;;;5053130;28;20500;-67
2023/08/04 01:35:58;;;;;;;2.50;1.70;;;14.30;98.00;;;;;;5052917;28;20861;-66
2023/08/04 01:38:26;;;;;;;1.97;1.67;;;14.30;98.00;;;;;;5052710;28;20749;-67
2023/08/04 01:40:53;;;;;;;2.47;1.70;;;14.50;98.00;;;;;;5052568;28;20450;-67
2023/08/04 01:43:21;;;;;;;2.13;1.60;;;14.50;98.00;;;;;;5052683;28;20449;-67
2023/08/04 01:45:49;;;;;;;3.00;1.70;;;14.60;98.00;;;;;;5052543;28;20481;-66
2023/08/04 01:48:16;;;;;;;2.40;1.77;;;14.60;98.00;;;;;;5252811;22;20466;-69
2023/08/04 01:50:44;;;;;;;2.63;1.63;;;14.60;98.00;;;;;;5052273;28;20882;-70
2023/08/04 01:53:11;;;;;;;2.60;1.90;;;14.70;98.00;;;;;;5052701;28;20458;-69
2023/08/04 01:55:39;;;;;;;2.17;1.60;;;14.90;98.00;;;;;;5052252;28;20454;-68
2023/08/04 01:58:06;;;;;;;1.93;1.60;;;14.90;98.00;;;;;;5052269;28;20457;-69
2023/08/04 02:00:33;;;;;;;2.37;1.50;;;14.80;98.00;;;;;;5052263;28;20454;-69
2023/08/04 02:03:00;;;;;;;5.40;1.60;;;14.90;98.00;;;;;;5052458;28;20454;-69
2023/08/04 02:05:27;;;;;;;2.60;1.80;;;14.90;98.00;;;;;;5034746;28;20449;-68
2023/08/04 02:07:54;;;;;;;2.30;1.80;;;14.80;98.00;;;;;;5052068;28;20453;-69
2023/08/04 02:10:21;;;;;;;8.23;1.70;;;14.70;98.00;;;;;;5052319;28;20446;-69
2023/08/04 02:12:50;;;;;;;1.57;1.50;;;14.70;98.00;;;;;;5052365;28;20468;-69
2023/08/04 02:15:17;;;;;;;2.73;1.60;;;14.60;98.00;;;;;;5052150;28;20450;-70
2023/08/04 02:17:44;;;;;;;9.20;1.87;;;14.70;98.00;;;;;;5052142;28;20446;-69
2023/08/04 02:20:12;;;;;;;2.60;1.70;;;14.70;98.00;;;;;;5052094;28;20967;-68
2023/08/04 02:22:46;;;;;;;1.80;1.60;;;14.90;98.00;;;;;;5051886;28;20464;-69
2023/08/04 02:25:14;;;;;;;2.90;1.60;;;14.80;98.00;;;;;;5051945;28;20954;-69
2023/08/04 02:27:41;;;;;;;2.03;1.67;;;14.80;98.00;;;;;;5034005;28;20702;-70
2023/08/04 02:30:10;;;;;;;2.13;1.80;;;14.70;98.00;;;;;;5034137;28;20453;-70
2023/08/04 02:32:37;;;;;;;2.93;1.70;;;14.50;98.00;;;;;;5051556;28;20449;-68
2023/08/04 02:35:05;;;;;;;3.00;1.93;;;14.40;98.00;;;;;;5051600;28;20450;-69
2023/08/04 02:37:32;;;;;;;2.43;2.00;;;14.30;98.00;;;;;;5034242;28;20811;-70
2023/08/04 02:39:59;;;;;;;1.63;1.43;;;14.20;98.00;;;;;;5051423;28;20454;-70
2023/08/04 02:42:26;;;;;;;2.97;1.80;;;14.20;98.00;;;;;;5051749;28;20452;-69
2023/08/04 02:44:55;;;;;;;2.53;1.80;;;14.30;98.00;;;;;;5051447;28;21032;-68
2023/08/04 02:47:24;;;;;;;2.70;1.63;;;14.40;98.00;;;;;;5033572;28;20477;-69
2023/08/04 02:49:51;;;;;;;1.80;1.50;;;14.50;98.00;;;;;;5051187;28;21032;-69
2023/08/04 02:52:18;;;;;;;3.53;1.80;;;14.70;98.00;;;;;;5051484;28;20508;-69
2023/08/04 02:54:45;;;;;;;2.00;1.63;;;14.90;98.00;;;;;;5033978;28;20476;-68
2023/08/04 02:57:12;;;;;;;1.30;1.30;;;15.00;98.00;;;;;;5051425;28;20462;-69
2023/08/04 02:59:39;;;;;;;2.77;1.53;;;14.90;98.00;;;;;;5051415;28;20956;-69
2023/08/04 03:02:07;;;;;;;3.27;2.10;;;14.70;98.00;;;;;;5051282;28;20460;-69
2023/08/04 03:04:35;;;;;;;2.10;1.73;;;14.60;98.00;;;;;;5051267;28;20460;-68
2023/08/04 03:07:03;;;;;;;3.30;1.77;;;14.50;98.00;;;;;;5051091;28;20481;-69
2023/08/04 03:09:30;;;;;;;2.63;2.00;;;14.50;98.00;;;;;;5051445;28;20464;-68
2023/08/04 03:12:00;;;;;;;1.63;1.53;;;14.50;98.00;;;;;;5051512;28;20453;-69
2023/08/04 03:14:29;;;;;;;2.77;1.70;;;14.70;98.00;;;;;;5034234;28;20442;-70
2023/08/04 03:16:56;;;;;;;3.70;1.70;;;14.50;98.00;;;;;;5051180;28;20468;-70
2023/08/04 03:19:23;;;;;;;2.57;1.80;;;14.60;98.00;;;;;;5051069;28;20468;-68
2023/08/04 03:21:51;;;;;;;6.27;2.00;;;14.80;98.00;;;;;;5051051;28;20503;-68
2023/08/04 03:24:18;;;;;;;2.87;1.90;;;14.80;98.00;;;;;;5051141;28;20500;-70
2023/08/04 03:26:45;;;;;;;2.20;1.80;;;14.90;98.00;;;;;;5050869;28;20814;-70
2023/08/04 03:29:13;;;;;;;1.80;1.50;;;14.80;98.00;;;;;;5051148;28;20463;-69
2023/08/04 03:31:40;;;;;;;2.43;1.70;;;14.70;98.00;;;;;;5050905;28;20475;-69
2023/08/04 03:34:07;;;;;;;5.60;2.10;;;14.70;98.00;;;;;;5033253;28;20448;-68
2023/08/04 03:36:34;;;;;;;1.80;1.63;;;14.50;98.00;;;;;;5050830;28;20456;-69
2023/08/04 03:39:03;;;;;;;5.00;1.90;;;14.30;98.00;;;;;;5050873;28;20864;-69
2023/08/04 03:41:30;;;;;;;2.10;1.60;;;14.30;98.00;;;;;;5050918;28;20878;-70
2023/08/04 03:43:57;;;;;;;2.13;1.60;;;14.20;98.00;;;;;;5050842;28;20458;-70
2023/08/04 03:46:24;;;;;;;2.10;1.63;;;14.10;98.00;;;;;;5050891;28;20873;-70
2023/08/04 03:48:51;;;;;;;6.40;1.90;;;14.10;98.00;;;;;;5050610;28;20469;-70
2023/08/04 03:51:19;;;;;;;2.43;1.97;;;14.00;98.00;;;;;;5051451;28;20469;-68
2023/08/04 03:53:46;;;;;;;7.37;1.53;;;14.00;98.00;;;;;;5053572;28;20510;-68
2023/08/04 03:56:16;;;;;;;2.40;1.90;;;14.00;98.00;;;;;;5054543;28;20461;-69
2023/08/04 03:58:43;;;;;;;4.17;1.70;;;13.90;98.00;;;;;;5055248;28;20453;-69
2023/08/04 04:01:10;;;;;;;2.37;1.60;;;13.90;98.00;;;;;;5054713;28;20943;-69
2023/08/04 04:03:37;;;;;;;2.20;1.80;;;14.00;98.00;;;;;;5054786;28;20449;-69
2023/08/04 04:06:04;;;;;;;3.73;1.80;;;14.00;98.00;;;;;;5036856;28;20456;-69
2023/08/04 04:08:34;;;;;;;2.00;1.40;;;13.90;98.00;;;;;;5054641;28;20472;-70
2023/08/04 04:11:01;;;;;;;2.03;1.57;;;14.00;98.00;;;;;;5036459;28;20453;-70
2023/08/04 04:13:30;;;;;;;2.43;1.87;;;14.00;98.00;;;;;;5054557;28;20972;-70
2023/08/04 04:15:57;;;;;;;1.70;1.60;;;14.10;98.00;;;;;;5054398;28;20948;-69
2023/08/04 04:18:24;;;;;;;2.00;1.50;;;14.10;98.00;;;;;;5054411;28;20947;-69
2023/08/04 04:20:51;;;;;;;2.40;1.70;;;14.10;98.00;;;;;;5054562;28;20850;-69
2023/08/04 04:23:18;;;;;;;2.17;1.80;;;14.00;98.00;;;;;;5054317;28;20458;-69
2023/08/04 04:25:45;;;;;;;2.07;1.70;;;14.00;98.00;;;;;;5054279;28;20798;-69
2023/08/04 04:28:12;;;;;;;2.70;1.80;;;14.10;98.00;;;;;;5053859;28;20484;-69
2023/08/04 04:30:41;;;;;;;1.90;1.50;;;14.10;98.00;;;;;;5053853;28;20459;-69
2023/08/04 04:33:08;;;;;;;2.07;1.80;;;14.10;98.00;;;;;;5053990;28;20449;-69
2023/08/04 04:35:35;;;;;;;2.70;1.50;;;14.00;98.00;;;;;;5053979;28;20449;-69
2023/08/04 04:38:02;;;;;;;2.10;1.53;;;14.10;98.00;;;;;;5054066;28;20597;-70
2023/08/04 04:40:29;;;;;;;1.93;1.60;;;14.30;98.00;;;;;;5053923;28;20453;-68
2023/08/04 04:42:56;;;;;;;2.47;1.80;;;14.40;98.00;;;;;;5053704;28;20469;-69
2023/08/04 04:45:23;;;;;;;2.10;1.87;;;14.50;98.00;;;;;;5052371;28;20789;-69
2023/08/04 04:47:55;;;;;;;2.30;1.73;;;14.60;98.00;;;;;;5053596;28;21003;-69
2023/08/04 04:50:22;;;;;;;3.00;1.67;;;14.80;98.00;;;;;;5053562;28;20477;-68
2023/08/04 04:52:49;;;;;;;3.00;1.80;;;15.00;98.00;;;;;;5036025;28;20453;-68
2023/08/04 04:55:16;;;;;;;2.10;1.90;;;14.80;98.00;;;;;;5053800;28;20453;-69
2023/08/04 04:57:43;;;;;;;2.93;1.83;;;14.80;98.00;;;;;;5053611;28;20821;-69
2023/08/04 05:00:12;;;;;;;2.50;1.80;;;14.70;98.00;;;;;;5053759;28;20466;-69
2023/08/04 05:02:39;;;;;;;2.80;1.83;;;14.80;98.00;;;;;;5053478;28;20875;-69
2023/08/04 05:05:09;;;;;;;3.50;2.00;;;15.10;98.00;;;;;;5053510;28;20457;-69
2023/08/04 05:07:36;;;;;;;1.80;1.70;;;15.20;98.00;;;;;;5019187;28;20849;-69
2023/08/04 05:10:03;;;;;;;2.57;1.90;;;15.00;98.00;;;;;;5053308;28;20687;-69
2023/08/04 05:12:31;;;;;;;2.43;1.73;;;14.90;98.00;;;;;;5053100;28;20446;-70
2023/08/04 05:14:58;;;;;;;3.20;1.93;;;14.80;98.00;;;;;;5053528;28;20968;-70
2023/08/04 05:17:25;;;;;;;3.90;1.80;;;14.80;98.00;;;;;;5052999;28;20457;-69
2023/08/04 05:19:52;;;;;;;3.13;1.90;;;14.80;98.00;;;;;;5053174;28;20449;-69
2023/08/04 05:22:24;;;;;;;2.30;1.80;;;14.70;98.00;;;;;;5053192;28;20449;-70
2023/08/04 05:24:52;;;;;;;2.77;1.90;;;14.80;98.00;;;;;;5052972;28;20458;-69
2023/08/04 05:27:19;;;;;;;2.20;1.77;;;14.80;98.00;;;;;;5052825;28;20484;-68
2023/08/04 05:29:46;;;;;;;3.20;2.10;;;14.90;98.00;;;;;;5052784;28;20460;-69
2023/08/04 05:32:13;;;;;;;3.33;2.00;;;15.00;98.00;;;;;;5052736;28;20503;-70
2023/08/04 05:34:40;;;;;;;3.10;1.90;;;15.10;98.00;;;;;;5052914;28;20461;-69
2023/08/04 05:37:07;;;;;;;5.40;2.10;;;15.30;98.00;;;;;;5052769;28;20461;-68
2023/08/04 05:39:36;;;;;;;2.80;1.93;;;15.30;98.00;;;;;;5035037;28;20477;-69
2023/08/04 05:42:04;;;;;;;3.23;2.00;;;15.20;98.00;;;;;;5034957;28;20813;-69
2023/08/04 05:44:31;;;;;;;2.67;1.90;;;15.30;98.00;;;;;;5052628;28;20458;-69
2023/08/04 05:46:59;;;;;;;2.20;1.80;;;15.40;98.00;;;;;;5052400;28;20481;-69
2023/08/04 05:49:26;;;;;;;5.03;1.83;;;15.50;98.00;;;;;;5052607;28;20957;-69
2023/08/04 05:51:53;;;;;;;3.13;2.10;;;15.60;98.00;;;;;;5052737;28;20457;-70
2023/08/04 05:54:20;;;;;;;3.00;1.83;;;15.60;98.00;;;;;;5052685;28;20826;-68
2023/08/04 05:56:49;;;;;;;3.50;2.20;;;15.70;98.00;;;;;;5052299;28;20458;-69
2023/08/04 05:59:16;;;;;;;2.20;1.80;;;15.90;98.00;;;;;;5052277;28;20450;-69
2023/08/04 06:01:43;;;;;;;2.90;2.10;;;15.90;98.00;;;;;;5052155;28;20458;-69
2023/08/04 06:04:11;;;;;;;2.40;1.90;;;15.90;98.00;;;;;;5052491;28;20465;-69
2023/08/04 06:06:38;;;;;;;2.00;1.60;;;16.00;98.00;;;;;;5051992;28;20457;-69
2023/08/04 06:09:05;;;;;;;2.20;2.00;;;16.00;98.00;;;;;;5052416;28;20445;-69
2023/08/04 06:11:32;;;;;;;6.37;2.00;;;16.20;98.00;;;;;;5052236;28;20950;-65
2023/08/04 06:14:01;;;;;;;1.83;1.70;;;16.20;98.00;;;;;;5051537;28;20458;-66
2023/08/04 06:16:28;;;;;;;2.17;1.70;;;16.40;98.00;;;;;;5051959;28;20450;-66
2023/08/04 06:18:56;;;;;;;3.63;1.93;;;16.50;98.00;;;;;;5034425;28;21064;-66
2023/08/04 06:21:23;;;;;;;3.00;2.20;;;16.50;98.00;;;;;;5034038;28;20985;-66
2023/08/04 06:23:50;;;;;;;2.50;1.87;;;16.60;98.00;;;;;;5051712;28;20500;-67
2023/08/04 06:26:18;;;;;;;3.67;1.83;;;16.70;98.00;;;;;;5034326;28;20446;-66
2023/08/04 06:28:45;;;;;;;4.43;2.20;;;16.80;98.00;;;;;;5051846;28;20653;-66
2023/08/04 06:31:15;;;;;;;3.73;2.20;;;16.90;98.00;;;;;;5034044;28;20943;-66
2023/08/04 06:33:43;;;;;;;3.70;1.97;;;17.00;98.00;;;;;;5051954;28;20449;-66
2023/08/04 06:36:10;;;;;;;2.73;1.90;;;17.10;98.00;;;;;;5051849;28;20454;-67
2023/08/04 06:38:37;;;;;;;3.70;1.73;;;17.00;98.00;;;;;;5051582;28;20461;-66
2023/08/04 06:41:04;;;;;;;4.23;2.30;;;17.00;98.00;;;;;;5051545;28;20823;-66
2023/08/04 06:43:31;;;;;;;2.83;2.13;;;17.00;98.00;;;;;;5051689;28;20450;-65
2023/08/04 06:45:58;;;;;;;3.40;2.10;;;17.10;98.00;;;;;;5051762;28;20817;-66
2023/08/04 06:48:27;;;;;;;3.50;2.03;;;17.40;98.00;;;;;;5051398;28;20482;-66
2023/08/04 06:50:54;;;;;;;3.80;1.90;;;17.40;98.00;;;;;;5051815;28;20461;-66
2023/08/04 06:53:21;;;;;;;2.80;2.27;;;17.50;98.00;;;;;;5051752;28;20446;-66
2023/08/04 06:55:49;;;;;;;5.37;2.03;;;17.60;98.00;;;;;;5017431;28;20948;-66
2023/08/04 06:58:16;;;;;;;2.43;1.97;;;17.70;98.00;;;;;;5051365;28;20457;-66
2023/08/04 07:00:43;;;;;;;2.73;1.97;;;17.90;98.00;;;;;;5051372;28;20951;-67
2023/08/04 07:03:12;;;;;;;2.83;1.83;;;18.00;98.00;;;;;;5033583;28;20449;-66
2023/08/04 07:05:41;;;;;;;2.53;2.03;;;18.20;98.00;;;;;;5052270;28;20663;-67
2023/08/04 07:08:08;;;;;;;2.00;1.80;;;18.40;98.00;;;;;;5018166;28;20492;-66
2023/08/04 07:10:36;;;;;;;1.93;1.80;;;18.60;98.00;;;;;;5051510;28;20450;-66
2023/08/04 07:13:03;;;;;;;2.83;1.90;;;18.70;98.00;;;;;;5052311;28;20450;-66
2023/08/04 07:15:32;;;;;;;2.73;1.90;;;18.80;98.00;;;;;;5052306;28;20825;-66
2023/08/04 07:17:59;;;;;;;2.00;1.70;;;18.80;98.00;;;;;;5051915;28;20853;-65
2023/08/04 07:20:27;;;;;;;2.30;1.93;;;18.90;98.00;;;;;;5032294;28;20454;-66
2023/08/04 07:22:56;;;;;;;2.53;2.00;;;18.90;98.00;;;;;;5038364;28;20447;-66
2023/08/04 07:25:23;;;;;;;2.97;2.00;;;19.10;98.00;;;;;;5071209;28;20461;-66
2023/08/04 07:27:50;;;;;;;2.93;1.90;;;19.10;98.00;;;;;;5074235;28;20491;-66
2023/08/04 07:30:17;;;;;;;9.53;2.00;;;19.20;98.00;;;;;;5075006;28;20472;-66
2023/08/04 07:32:44;;;;;;;3.37;2.10;;;19.30;98.00;;;;;;5074956;28;20510;-66
2023/08/04 07:35:11;;;;;;;2.53;2.00;;;19.30;98.00;;;;;;5074860;28;20459;-66
2023/08/04 07:37:38;;;;;;;3.27;1.80;;;19.50;98.00;;;;;;5074978;28;20449;-66
2023/08/04 07:40:08;;;;;;;3.63;2.20;;;19.60;98.00;;;;;;5040957;28;20448;-66
2023/08/04 07:42:35;;;;;;;2.83;1.97;;;19.70;98.00;;;;;;5075517;28;20460;-66
2023/08/04 07:45:05;;;;;;;1.97;1.77;;;19.90;98.00;;;;;;5038413;28;20947;-66
2023/08/04 07:47:32;;;;;;;2.33;1.83;;;20.00;98.00;;;;;;5054766;28;20482;-66
2023/08/04 07:49:59;;;;;;;2.40;1.80;;;20.10;98.00;;;;;;5036784;28;20469;-66
2023/08/04 07:52:26;;;;;;;1.93;1.80;;;20.20;98.00;;;;;;5054612;28;20457;-67
2023/08/04 07:54:53;;;;;;;2.37;1.90;;;20.40;98.00;;;;;;5054602;28;20461;-66
2023/08/04 07:57:23;;;;;;;3.17;1.87;;;20.40;98.00;;;;;;5054586;28;20453;-66
2023/08/04 07:59:51;;;;;;;1.83;1.63;;;20.60;98.00;;;;;;5054538;28;20457;-67
2023/08/04 08:02:18;;;;;;;6.40;1.90;;;20.70;98.00;;;;;;5054316;28;20989;-67
2023/08/04 08:04:45;;;;;;;2.90;1.73;;;20.80;98.00;;;;;;5036653;28;20448;-66
2023/08/04 08:07:12;;;;;;;2.10;1.67;;;20.90;98.00;;;;;;5054517;28;20449;-66
2023/08/04 08:09:40;;;;;;;2.47;1.50;;;20.90;98.00;;;;;;5054158;28;20493;-66
2023/08/04 08:12:08;;;;;;;2.63;1.80;;;20.90;98.00;;;;;;5052092;28;20452;-66
2023/08/04 08:14:37;;;;;;;3.67;1.70;;;20.80;98.00;;;;;;5074404;28;20454;-66
2023/08/04 08:17:05;;;;;;;2.40;1.60;;;20.70;98.00;;;;;;5056579;28;20510;-72
2023/08/04 08:19:32;;;;;;;1.90;1.50;;;20.70;98.00;;;;;;5072018;28;20451;-63
2023/08/04 08:22:00;;;;;;;3.33;1.50;;;20.90;98.00;;;;;;5054330;28;20454;-64
2023/08/04 08:24:27;;;;;;;2.23;1.67;;;21.00;98.00;;;;;;5057772;28;20693;-64
2023/08/04 08:26:54;;;;;;;2.80;1.70;;;21.00;98.00;;;;;;5073928;28;20453;-64
2023/08/04 08:29:21;;;;;;;3.40;1.70;;;20.90;98.00;;;;;;5056241;28;20487;-63
2023/08/04 08:31:51;;;;;;;1.87;1.63;;;20.60;98.00;;;;;;5056670;28;21025;-64
2023/08/04 08:34:18;;;;;;;1.70;1.60;;;20.40;98.00;;;;;;5074185;28;20486;-64
2023/08/04 08:36:47;;;;;;;3.17;1.70;;;20.40;98.00;;;;;;5073880;28;20460;-64
2023/08/04 08:39:14;;;;;;;3.07;1.67;;;20.40;98.00;;;;;;5074137;28;20961;-64
2023/08/04 08:41:41;;;;;;;2.20;1.70;;;20.40;98.00;;;;;;5073991;28;20807;-64
2023/08/04 08:44:09;;;;;;;1.60;1.40;;;20.60;98.00;;;;;;5074390;28;20528;-63
2023/08/04 08:46:37;;;;;;;4.30;2.10;;;20.80;98.00;;;;;;5073815;28;20860;-64
2023/08/04 08:49:06;;;;;;;1.70;1.50;;;21.20;98.00;;;;;;5073629;28;20488;-63
2023/08/04 08:51:36;;;;;;;2.07;1.70;;;21.60;98.00;;;;;;5073633;28;20460;-63
2023/08/04 08:54:07;;;;;;;1.90;1.70;;;21.90;98.00;;;;;;5073636;28;20451;-63
2023/08/04 08:56:35;;;;;;;1.87;1.60;;;22.20;98.00;;;;;;5073735;28;20445;-63
2023/08/04 08:59:03;;;;;;;1.80;1.67;;;22.40;98.00;;;;;;5074054;28;20860;-64
2023/08/04 09:01:31;;;;;;;1.50;1.47;;;22.40;98.00;;;;;;5073865;28;20970;-64
2023/08/04 09:04:01;;;;;;;2.90;1.80;;;22.50;98.00;;;;;;5073517;28;20460;-64
2023/08/04 09:06:29;;;;;;;1.50;1.50;;;22.40;98.00;;;;;;5073460;28;20870;-63
2023/08/04 09:08:58;;;;;;;1.60;1.53;;;22.20;98.00;;;;;;5073337;28;20480;-64
2023/08/04 09:11:25;;;;;;;1.97;1.57;;;22.10;98.00;;;;;;5055809;28;20449;-65
2023/08/04 09:13:52;;;;;;;1.63;1.50;;;22.10;98.00;;;;;;5073010;28;20449;-63
2023/08/04 09:16:32;;;;;;;1.70;1.60;;;22.10;98.00;;;;;;5073204;28;20449;-64
2023/08/04 09:19:04;;;;;;;1.90;1.60;;;22.10;98.00;;;;;;5055885;28;20503;-64
2023/08/04 09:21:34;;;;;;;3.33;1.80;;;22.10;98.00;;;;;;5074052;28;20448;-64
2023/08/04 09:24:03;;;;;;;2.60;1.80;;;22.00;98.00;;;;;;5073850;28;20945;-63
2023/08/04 09:26:41;;;;;;;1.60;1.60;;;22.10;98.00;;;;;;5073688;28;20461;-64
2023/08/04 09:29:09;;;;;;;3.10;1.60;;;22.30;98.00;;;;;;5056387;28;20513;-63
2023/08/04 09:31:37;;;;;;;4.83;1.80;;;22.50;98.00;;;;;;5056236;28;20453;-65
2023/08/04 09:34:05;;;;;;;3.60;1.77;;;22.60;98.00;;;;;;5073728;28;20456;-64
2023/08/04 09:36:39;;;;;;;3.10;1.90;;;22.70;98.00;;;;;;5073543;28;21008;-63
2023/08/04 09:39:06;;;;;;;1.57;1.57;;;23.00;98.00;;;;;;5073485;28;20945;-64
2023/08/04 09:41:34;;;;;;;2.00;1.60;;;22.90;98.00;;;;;;5072036;28;20472;-65
2023/08/04 09:44:05;;;;;;;1.70;1.53;;;22.50;98.00;;;;;;5073037;28;20460;-63
2023/08/04 09:46:38;;;;;;;2.40;1.60;;;22.30;98.00;;;;;;5073315;28;20514;-64
2023/08/04 09:49:05;;;;;;;1.70;1.50;;;22.60;98.00;;;;;;5072198;28;20493;-64
2023/08/04 09:51:40;;;;;;;2.90;1.67;;;22.80;98.00;;;;;;5055172;28;20788;-64
2023/08/04 09:54:07;;;;;;;1.93;1.63;;;22.60;98.00;;;;;;5073162;28;20448;-64
2023/08/04 09:56:35;;;;;;;1.97;1.60;;;22.80;98.00;;;;;;5072802;28;20472;-64
2023/08/04 09:59:03;;;;;;;3.43;1.90;;;22.70;98.00;;;;;;5072958;28;20510;-64
2023/08/04 10:01:30;;;;;;;3.20;1.60;;;22.80;98.00;;;;;;5072807;28;20453;-64
2023/08/04 10:03:58;;;;;;;2.07;1.60;;;23.00;98.00;;;;;;5073142;28;20467;-65
2023/08/04 10:06:26;;;;;;;2.53;1.50;;;23.30;98.00;;;;;;5055224;28;20468;-64
2023/08/04 10:08:56;;;;;;;2.33;1.77;;;23.50;98.00;;;;;;5072960;28;20537;-65
2023/08/04 10:11:23;;;;;;;2.43;1.60;;;23.70;98.00;;;;;;5072857;28;20449;-64
2023/08/04 10:13:53;;;;;;;1.60;1.50;;;23.90;98.00;;;;;;5072951;28;20456;-64
2023/08/04 10:16:24;;;;;;;1.60;1.50;;;23.80;98.00;;;;;;5072632;28;20457;-64
2023/08/04 10:18:52;;;;;;;1.77;1.70;;;23.90;98.00;;;;;;5072644;28;20459;-64
2023/08/04 10:21:21;;;;;;;6.40;1.60;;;24.10;98.00;;;;;;5072909;28;20495;-64
2023/08/04 10:23:49;;;;;;;2.43;1.70;;;24.10;98.00;;;;;;5073010;28;20966;-65
2023/08/04 10:26:17;;;;;;;1.73;1.50;;;24.10;98.00;;;;;;5072895;28;20464;-65
2023/08/04 10:29:07;;;;;;;1.67;1.60;;;24.20;98.00;;;;;;5054331;28;20481;-64
2023/08/04 10:31:52;;;;;;;2.50;1.80;;;24.40;98.00;;;;;;5072402;28;20480;-65
2023/08/04 10:34:25;;;;;;;2.77;1.80;;;24.30;98.00;;;;;;5072270;28;20890;-64
2023/08/04 10:37:17;;;;;;;1.50;1.40;;;24.50;98.00;;;;;;5072338;28;20463;-64
2023/08/04 10:39:45;;;;;;;2.90;1.70;;;24.50;98.00;;;;;;5072259;28;20453;-64
2023/08/04 10:42:22;;;;;;;1.63;1.50;;;24.50;98.00;;;;;;5072220;28;20461;-63
2023/08/04 10:44:54;;;;;;;2.60;1.63;;;24.70;98.00;;;;;;5072241;28;20535;-65
2023/08/04 10:47:44;;;;;;;2.23;1.60;;;24.80;98.00;;;;;;5072287;28;20453;-64
2023/08/04 10:50:11;;;;;;;2.50;1.67;;;25.10;98.00;;;;;;5063957;28;21029;-64
2023/08/04 10:52:39;;;;;;;2.03;1.70;;;25.20;98.00;;;;;;5072220;28;20461;-64
2023/08/04 10:55:09;;;;;;;1.90;1.50;;;25.50;98.00;;;;;;5072055;28;20444;-63
2023/08/04 10:57:38;;;;;;;2.43;1.70;;;25.40;98.00;;;;;;5072123;28;20461;-64
2023/08/04 11:00:07;;;;;;;3.00;2.00;;;25.30;96.80;;;;;;5072070;28;21100;-64
2023/08/04 11:02:35;;;;;;;1.53;1.43;;;25.20;96.10;;;;;;5037188;28;20495;-64
2023/08/04 11:05:05;;;;;;;1.83;1.60;;;25.00;96.80;;;;;;5071256;28;20865;-64
2023/08/04 11:07:32;;;;;;;2.60;1.60;;;24.80;97.90;;;;;;5071252;28;20467;-66
2023/08/04 11:10:05;;;;;;;1.67;1.63;;;24.80;98.00;;;;;;5071369;28;20886;-65
2023/08/04 11:12:33;;;;;;;2.27;1.77;;;24.90;98.00;;;;;;5071116;28;20492;-64
2023/08/04 11:15:01;;;;;;;1.97;1.87;;;24.70;98.00;;;;;;5071203;28;20460;-64
2023/08/04 11:17:28;;;;;;;2.20;1.60;;;24.40;98.00;;;;;;5071315;28;20449;-64
2023/08/04 11:19:56;;;;;;;1.50;1.43;;;24.40;98.00;;;;;;5071136;28;20449;-64
2023/08/04 11:22:24;;;;;;;1.50;1.47;;;24.40;98.00;;;;;;5071296;28;20455;-65
2023/08/04 11:24:52;;;;;;;4.43;1.90;;;24.30;98.00;;;;;;5071294;28;20457;-66
2023/08/04 11:27:20;;;;;;;2.10;1.80;;;24.40;98.00;;;;;;5071037;28;20453;-66
2023/08/04 11:29:52;;;;;;;1.77;1.60;;;24.30;98.00;;;;;;5071087;28;20481;-65
2023/08/04 11:32:23;;;;;;;1.60;1.50;;;24.10;98.00;;;;;;5071234;28;20460;-65
2023/08/04 11:34:50;;;;;;;3.33;1.67;;;23.90;98.00;;;;;;5070846;28;20457;-65
2023/08/04 11:37:19;;;;;;;1.80;1.50;;;23.80;98.00;;;;;;5071227;28;20510;-66
2023/08/04 11:39:46;;;;;;;2.40;1.67;;;23.60;98.00;;;;;;5070928;28;20492;-65
2023/08/04 11:42:14;;;;;;;2.47;1.67;;;23.50;98.00;;;;;;5070878;28;20481;-65
2023/08/04 11:44:42;;;;;;;1.97;1.70;;;23.40;98.00;;;;;;5070964;28;20451;-65
2023/08/04 11:47:10;;;;;;;2.20;1.60;;;23.30;98.00;;;;;;5070709;28;20547;-65
2023/08/04 11:49:40;;;;;;;2.80;1.90;;;23.10;98.00;;;;;;5070685;28;20500;-64
2023/08/04 11:52:09;;;;;;;1.80;1.70;;;22.90;98.00;;;;;;5070855;28;20453;-64
2023/08/04 11:54:36;;;;;;;2.60;1.90;;;22.80;98.00;;;;;;5070613;28;20449;-64
2023/08/04 11:57:04;;;;;;;13.63;1.90;;;22.80;98.00;;;;;;5070637;28;20947;-64
2023/08/04 11:59:31;;;;;;;3.50;1.80;;;22.80;98.00;;;;;;5071012;28;20453;-66
2023/08/04 12:02:06;;;;;;;1.50;1.50;;;22.80;98.00;;;;;;5069873;28;20461;-65
2023/08/04 12:04:33;;;;;;;2.77;1.80;;;22.90;98.00;;;;;;5050243;28;20825;-64
2023/08/04 12:07:05;;;;;;;2.07;1.70;;;23.20;98.00;;;;;;5063632;28;20449;-64
2023/08/04 12:09:33;;;;;;;4.03;2.07;;;23.50;98.00;;;;;;5070443;28;20517;-64
2023/08/04 12:12:00;;;;;;;1.90;1.80;;;23.80;98.00;;;;;;5070518;28;20462;-64
2023/08/04 12:14:30;;;;;;;2.07;1.63;;;24.00;98.00;;;;;;5074345;28;20452;-63
2023/08/04 12:16:59;;;;;;;3.33;1.83;;;24.60;98.00;;;;;;5074253;28;20445;-64
2023/08/04 12:19:27;;;;;;;1.80;1.70;;;25.40;98.00;;;;;;5074704;28;20448;-64
2023/08/04 12:21:57;;;;;;;1.80;1.70;;;25.80;98.00;;;;;;5056036;28;20515;-64
2023/08/04 12:24:27;;;;;;;5.63;1.57;;;25.60;98.00;;;;;;5074290;28;20449;-64
2023/08/04 12:26:54;;;;;;;4.97;1.90;;;25.50;98.00;;;;;;5074125;28;20456;-65
2023/08/04 12:29:22;;;;;;;1.80;1.60;;;25.40;98.00;;;;;;5074152;28;20481;-65
2023/08/04 12:31:51;;;;;;;1.63;1.60;;;25.60;98.00;;;;;;5073919;28;20704;-65
2023/08/04 12:34:18;;;;;;;1.70;1.60;;;25.80;98.00;;;;;;5074078;28;20464;-65
2023/08/04 12:36:45;;;;;;;2.03;1.80;;;25.40;98.00;;;;;;5073658;28;20461;-64
2023/08/04 12:39:13;;;;;;;2.00;1.70;;;25.00;98.00;;;;;;5056323;28;20444;-64
2023/08/04 12:41:42;;;;;;;3.57;1.73;;;25.20;98.00;;;;;;5073769;28;20449;-64
2023/08/04 12:44:10;;;;;;;1.70;1.50;;;25.00;98.00;;;;;;5073837;28;20950;-64
2023/08/04 12:46:37;;;;;;;1.70;1.60;;;25.30;98.00;;;;;;5073454;28;20457;-64
2023/08/04 12:49:04;;;;;;;1.90;1.60;;;25.40;98.00;;;;;;5055939;28;20491;-65
2023/08/04 12:51:32;;;;;;;3.13;1.90;;;25.30;98.00;;;;;;5072798;28;20932;-64
2023/08/04 12:53:59;;;;;;;3.07;1.73;;;25.10;98.00;;;;;;5072660;28;20946;-63